Time;durP1;ratioP1;P1;durP2;ratioP2;P2;SDS_P1;SDS_P2;PMS_P1;PMS_P2;Temp;Humidity;BMP_temperature;BMP_pressure;BME280_temperature;BME280_humidity;BME280_pressure;Samples;Min_cycle;Max_cycle;Signal;HPM_P1;HPM_P2
2024/01/21 00:00:16;;;;;;;9.77;4.25;;;;;;;;;;5213686;22;20024;-80
2024/01/21 00:02:28;;;;;;;10.02;3.72;;;;;;;;;;5265352;22;20042;-81
2024/01/21 00:04:32;;;;;;;6.97;3.53;;;;;;;;;;5212580;22;20026;-81
2024/01/21 00:06:40;;;;;;;10.43;4.35;;;;;;;;;;5265202;22;20015;-81
2024/01/21 00:08:50;;;;;;;7.65;3.70;;;;;;;;;;5266151;22;20025;-81
2024/01/21 00:10:56;;;;;;;7.57;3.40;;;;;;;;;;5239111;22;20016;-81
2024/01/21 00:13:04;;;;;;;9.82;4.55;;;;;;;;;;5265570;22;20053;-81
2024/01/21 00:15:22;;;;;;;10.32;4.40;;;;;;;;;;5239121;22;20023;-80
2024/01/21 00:17:28;;;;;;;8.82;3.30;;;;;;;;;;5239364;22;20015;-80
2024/01/21 00:19:34;;;;;;;7.70;3.35;;;;;;;;;;5263979;22;20026;-81
2024/01/21 00:21:41;;;;;;;10.82;4.75;;;;;;;;;;5211562;22;20020;-80
2024/01/21 00:23:49;;;;;;;8.50;4.13;;;;;;;;;;5262668;22;20019;-81
2024/01/21 00:25:51;;;;;;;10.60;4.10;;;;;;;;;;5264451;22;20048;-82
2024/01/21 00:28:04;;;;;;;8.98;3.83;;;;;;;;;;5264504;22;20027;-81
2024/01/21 00:30:13;;;;;;;7.55;3.92;;;;;;;;;;5211336;22;20020;-81
2024/01/21 00:34:35;;;;;;;9.77;3.60;;;;;;;;;;5264875;22;19945;-80
2024/01/21 00:36:43;;;;;;;8.25;3.90;;;;;;;;;;5238300;22;20061;-81
2024/01/21 00:38:59;;;;;;;9.13;3.75;;;;;;;;;;5265781;22;20039;-81
2024/01/21 00:41:00;;;;;;;9.15;3.60;;;;;;;;;;5238425;22;20019;-81
2024/01/21 00:43:07;;;;;;;8.82;3.95;;;;;;;;;;5238994;22;20015;-81
2024/01/21 00:45:14;;;;;;;8.60;4.15;;;;;;;;;;5265725;22;20022;-80
2024/01/21 00:47:21;;;;;;;7.88;4.05;;;;;;;;;;5264113;22;20011;-80
2024/01/21 00:49:36;;;;;;;9.20;4.22;;;;;;;;;;5265173;22;20032;-80
2024/01/21 00:51:47;;;;;;;7.47;4.10;;;;;;;;;;5265331;22;20015;-80
2024/01/21 00:53:51;;;;;;;6.95;3.45;;;;;;;;;;5212355;22;20539;-80
2024/01/21 00:55:58;;;;;;;5.90;2.95;;;;;;;;;;5239671;22;20469;-80
2024/01/21 00:58:05;;;;;;;7.57;3.72;;;;;;;;;;5238009;22;20022;-80
2024/01/21 01:00:25;;;;;;;7.90;3.40;;;;;;;;;;5213081;22;20026;-80
2024/01/21 01:02:49;;;;;;;7.30;3.55;;;;;;;;;;5238661;22;20019;-80
2024/01/21 01:04:56;;;;;;;10.27;3.83;;;;;;;;;;5239250;22;20015;-80
2024/01/21 01:07:04;;;;;;;9.93;3.65;;;;;;;;;;5266163;22;20041;-80
2024/01/21 01:09:06;;;;;;;9.43;4.10;;;;;;;;;;5239228;22;20019;-79
2024/01/21 01:11:08;;;;;;;9.75;3.72;;;;;;;;;;5212585;22;20031;-79
2024/01/21 01:13:16;;;;;;;8.88;4.03;;;;;;;;;;5239089;22;20050;-80
2024/01/21 01:15:29;;;;;;;9.85;4.63;;;;;;;;;;5238579;22;20032;-80
2024/01/21 01:17:37;;;;;;;8.68;4.22;;;;;;;;;;5266225;22;20025;-80
2024/01/21 01:19:47;;;;;;;11.15;4.72;;;;;;;;;;5134537;22;1849882;-80
2024/01/21 01:21:56;;;;;;;9.57;4.65;;;;;;;;;;5188582;23;20024;-80
2024/01/21 01:24:13;;;;;;;13.50;4.97;;;;;;;;;;5214820;22;20022;-80
2024/01/21 01:26:15;;;;;;;11.00;4.93;;;;;;;;;;5188280;23;20020;-80
2024/01/21 01:28:31;;;;;;;11.80;4.57;;;;;;;;;;5188823;22;20004;-80
2024/01/21 01:30:35;;;;;;;8.15;4.03;;;;;;;;;;5214455;22;20016;-80
2024/01/21 01:32:45;;;;;;;10.98;4.53;;;;;;;;;;5187629;22;20016;-80
2024/01/21 01:34:55;;;;;;;11.35;4.53;;;;;;;;;;5217581;22;20016;-79
2024/01/21 01:37:13;;;;;;;9.38;4.10;;;;;;;;;;5217617;22;20004;-80
2024/01/21 01:39:25;;;;;;;9.10;4.32;;;;;;;;;;5217346;22;20063;-79
2024/01/21 01:41:27;;;;;;;9.40;4.28;;;;;;;;;;5217499;22;20019;-79
2024/01/21 01:43:31;;;;;;;10.60;4.95;;;;;;;;;;5213402;22;20043;-80
2024/01/21 01:45:45;;;;;;;9.07;4.60;;;;;;;;;;5214558;22;20050;-80
2024/01/21 01:47:52;;;;;;;10.32;4.35;;;;;;;;;;5213052;22;20025;-79
2024/01/21 01:50:09;;;;;;;8.15;3.92;;;;;;;;;;5188525;23;20016;-80
2024/01/21 01:52:17;;;;;;;8.70;3.80;;;;;;;;;;5215130;22;20020;-80
2024/01/21 01:54:23;;;;;;;10.10;4.50;;;;;;;;;;5214488;22;20046;-80
2024/01/21 01:56:29;;;;;;;8.43;4.40;;;;;;;;;;5214251;22;20026;-80
2024/01/21 01:58:44;;;;;;;9.35;4.35;;;;;;;;;;5213838;22;20071;-80
2024/01/21 02:00:47;;;;;;;8.85;4.32;;;;;;;;;;5211330;22;20019;-80
2024/01/21 02:02:54;;;;;;;9.80;4.30;;;;;;;;;;5214743;22;20019;-80
2024/01/21 02:05:03;;;;;;;8.38;3.53;;;;;;;;;;5188043;23;20016;-80
2024/01/21 02:07:08;;;;;;;9.95;4.50;;;;;;;;;;5188388;22;20020;-80
2024/01/21 02:09:14;;;;;;;8.25;4.10;;;;;;;;;;5212535;22;20024;-80
2024/01/21 02:11:35;;;;;;;7.93;3.35;;;;;;;;;;5212939;22;20023;-80
2024/01/21 02:13:45;;;;;;;9.23;4.35;;;;;;;;;;5188632;23;20016;-80
2024/01/21 02:16:02;;;;;;;10.00;3.60;;;;;;;;;;5213186;22;20020;-80
2024/01/21 02:18:03;;;;;;;10.38;4.25;;;;;;;;;;5187831;22;20063;-80
2024/01/21 02:20:18;;;;;;;7.25;3.22;;;;;;;;;;5212640;22;20030;-80
2024/01/21 02:22:34;;;;;;;9.25;4.20;;;;;;;;;;5212427;22;20019;-80
2024/01/21 02:24:45;;;;;;;7.53;3.17;;;;;;;;;;5213909;22;20054;-80
2024/01/21 02:26:53;;;;;;;9.95;3.50;;;;;;;;;;5187135;22;20601;-81
2024/01/21 02:29:00;;;;;;;7.80;3.40;;;;;;;;;;5210301;22;20020;-81
2024/01/21 02:31:03;;;;;;;7.97;3.70;;;;;;;;;;5211616;22;20016;-81
2024/01/21 02:33:05;;;;;;;12.65;4.07;;;;;;;;;;5211071;22;20008;-80
2024/01/21 02:35:07;;;;;;;7.30;3.22;;;;;;;;;;5186296;23;20020;-80
2024/01/21 02:37:14;;;;;;;8.80;3.97;;;;;;;;;;5213684;22;20023;-80
2024/01/21 02:39:24;;;;;;;11.02;3.85;;;;;;;;;;5159118;23;20028;-81
2024/01/21 02:41:36;;;;;;;10.60;5.05;;;;;;;;;;5208151;22;20015;-80
2024/01/21 02:43:37;;;;;;;7.55;3.40;;;;;;;;;;5209866;22;20020;-80
2024/01/21 02:45:43;;;;;;;6.50;3.30;;;;;;;;;;5214052;22;19999;-80
2024/01/21 02:47:58;;;;;;;8.30;3.17;;;;;;;;;;5187818;23;20390;-80
2024/01/21 02:50:06;;;;;;;6.25;3.40;;;;;;;;;;5187570;22;20044;-81
2024/01/21 02:52:11;;;;;;;6.70;3.10;;;;;;;;;;5212769;22;20019;-80
2024/01/21 02:54:18;;;;;;;7.68;3.08;;;;;;;;;;5212511;22;20063;-80
2024/01/21 02:56:24;;;;;;;11.70;4.63;;;;;;;;;;5213590;22;20016;-81
2024/01/21 02:58:26;;;;;;;9.65;3.25;;;;;;;;;;5211419;22;20077;-81
2024/01/21 03:00:28;;;;;;;9.20;3.95;;;;;;;;;;5184637;23;20024;-80
2024/01/21 03:02:31;;;;;;;8.02;3.40;;;;;;;;;;5182697;23;20020;-80
2024/01/21 03:04:33;;;;;;;8.35;3.17;;;;;;;;;;5207850;22;20016;-81
2024/01/21 03:06:44;;;;;;;7.78;2.78;;;;;;;;;;5209228;22;20019;-80
2024/01/21 03:08:47;;;;;;;8.52;2.83;;;;;;;;;;5182769;23;20387;-80
2024/01/21 03:11:18;;;;;;;9.23;4.03;;;;;;;;;;5212456;22;20047;-80
2024/01/21 03:13:28;;;;;;;7.70;2.95;;;;;;;;;;5213795;22;20023;-80
2024/01/21 03:15:30;;;;;;;7.93;2.50;;;;;;;;;;5212499;22;20016;-80
2024/01/21 03:17:36;;;;;;;7.38;1.95;;;;;;;;;;5214227;22;20047;-80
2024/01/21 03:19:45;;;;;;;6.60;3.00;;;;;;;;;;5264250;22;20049;-80
2024/01/21 03:21:50;;;;;;;5.38;3.08;;;;;;;;;;5212534;22;20035;-80
2024/01/21 03:24:04;;;;;;;5.80;2.80;;;;;;;;;;5241252;22;20015;-80
2024/01/21 03:26:06;;;;;;;6.60;3.20;;;;;;;;;;5213434;22;20440;-81
2024/01/21 03:28:22;;;;;;;6.90;2.97;;;;;;;;;;5214862;22;20016;-81
2024/01/21 03:30:34;;;;;;;5.82;2.60;;;;;;;;;;5214330;22;20472;-80
2024/01/21 03:32:39;;;;;;;6.35;2.65;;;;;;;;;;5214681;22;20003;-80
2024/01/21 03:34:46;;;;;;;7.38;2.72;;;;;;;;;;5240471;22;20398;-80
2024/01/21 03:36:55;;;;;;;7.85;2.75;;;;;;;;;;5242764;22;20015;-80
2024/01/21 03:39:00;;;;;;;6.55;2.28;;;;;;;;;;5215452;22;20095;-80
2024/01/21 03:41:07;;;;;;;5.82;2.65;;;;;;;;;;5214263;22;20016;-80
2024/01/21 03:43:10;;;;;;;8.63;3.10;;;;;;;;;;5214689;22;20020;-80
2024/01/21 03:45:18;;;;;;;7.63;2.42;;;;;;;;;;5267049;22;20014;-81
2024/01/21 03:47:27;;;;;;;9.20;2.42;;;;;;;;;;5240788;22;20022;-80
2024/01/21 03:49:31;;;;;;;7.15;2.72;;;;;;;;;;5267504;22;20019;-80
2024/01/21 03:51:37;;;;;;;4.15;1.80;;;;;;;;;;5267186;22;20039;-81
2024/01/21 03:53:46;;;;;;;3.95;1.98;;;;;;;;;;5266955;22;20071;-80
2024/01/21 03:55:49;;;;;;;5.55;2.00;;;;;;;;;;5214419;22;20024;-80
2024/01/21 03:57:51;;;;;;;3.97;2.33;;;;;;;;;;5214549;22;20041;-80
2024/01/21 04:00:08;;;;;;;6.25;1.83;;;;;;;;;;5240024;22;20090;-80
2024/01/21 04:02:20;;;;;;;3.95;1.83;;;;;;;;;;5241538;22;20067;-80
2024/01/21 04:04:22;;;;;;;4.25;2.28;;;;;;;;;;5212848;22;20084;-80
2024/01/21 04:06:30;;;;;;;3.95;1.80;;;;;;;;;;5240097;22;20016;-80
2024/01/21 04:08:33;;;;;;;4.72;2.00;;;;;;;;;;5240073;22;20071;-80
2024/01/21 04:10:43;;;;;;;8.18;1.83;;;;;;;;;;5238930;22;20028;-80
2024/01/21 04:12:51;;;;;;;5.47;1.70;;;;;;;;;;5213787;22;20046;-80
2024/01/21 04:14:52;;;;;;;6.43;2.00;;;;;;;;;;5239843;22;20051;-80
2024/01/21 04:16:56;;;;;;;8.65;1.20;;;;;;;;;;5238970;22;20026;-80
2024/01/21 04:19:19;;;;;;;3.85;1.70;;;;;;;;;;5266058;22;20030;-80
2024/01/21 04:21:28;;;;;;;3.25;1.40;;;;;;;;;;5238778;22;20046;-80
2024/01/21 04:23:36;;;;;;;5.28;2.15;;;;;;;;;;5239057;22;20488;-81
2024/01/21 04:25:51;;;;;;;4.50;1.45;;;;;;;;;;5264978;22;20015;-80
2024/01/21 04:27:56;;;;;;;5.00;1.77;;;;;;;;;;5212602;22;20169;-80
2024/01/21 04:30:04;;;;;;;4.88;1.27;;;;;;;;;;5266048;22;20011;-80
2024/01/21 04:32:30;;;;;;;2.97;1.92;;;;;;;;;;5213507;22;20015;-81
2024/01/21 04:34:36;;;;;;;2.78;1.55;;;;;;;;;;5264852;22;20082;-80
2024/01/21 04:37:01;;;;;;;3.65;1.50;;;;;;;;;;5238500;22;20018;-80
2024/01/21 04:39:08;;;;;;;2.40;1.23;;;;;;;;;;5264282;22;20022;-80
2024/01/21 04:41:19;;;;;;;4.68;1.60;;;;;;;;;;5213014;22;20019;-80
2024/01/21 04:43:29;;;;;;;3.42;1.35;;;;;;;;;;5265135;22;20024;-80
2024/01/21 04:45:40;;;;;;;3.55;1.38;;;;;;;;;;5238133;22;20023;-81
2024/01/21 04:47:51;;;;;;;2.80;1.35;;;;;;;;;;5238766;22;20092;-80
2024/01/21 04:49:56;;;;;;;3.45;1.58;;;;;;;;;;5237448;22;20015;-81
2024/01/21 04:52:04;;;;;;;6.72;1.65;;;;;;;;;;5238140;22;20053;-80
2024/01/21 04:54:10;;;;;;;2.40;1.38;;;;;;;;;;5211587;22;20049;-80
2024/01/21 04:56:20;;;;;;;4.78;1.25;;;;;;;;;;5265277;22;20062;-80
2024/01/21 04:58:29;;;;;;;3.28;1.65;;;;;;;;;;5237617;22;20042;-80
2024/01/21 05:00:41;;;;;;;3.20;1.40;;;;;;;;;;5264888;22;20018;-81
2024/01/21 05:02:53;;;;;;;3.83;2.08;;;;;;;;;;5213429;22;20047;-80
2024/01/21 05:05:12;;;;;;;4.10;1.40;;;;;;;;;;5212854;22;20047;-80
2024/01/21 05:07:20;;;;;;;;;;;;;;;;;;5265724;22;19998;-80
2024/01/21 05:09:27;;;;;;;3.72;1.58;;;;;;;;;;5212005;22;19919;-81
2024/01/21 05:11:35;;;;;;;4.55;1.50;;;;;;;;;;5236605;22;20094;-81
2024/01/21 05:13:43;;;;;;;2.85;1.13;;;;;;;;;;5265118;22;20038;-80
2024/01/21 05:15:56;;;;;;;3.60;1.08;;;;;;;;;;5212227;22;20084;-80
2024/01/21 05:17:57;;;;;;;3.38;1.35;;;;;;;;;;5234644;22;20042;-80
2024/01/21 05:20:05;;;;;;;2.38;1.35;;;;;;;;;;5211631;22;20020;-81
2024/01/21 05:22:13;;;;;;;3.80;1.33;;;;;;;;;;5213059;22;20047;-81
2024/01/21 05:24:16;;;;;;;2.42;1.08;;;;;;;;;;5209939;22;20019;-81
2024/01/21 05:26:19;;;;;;;4.32;1.00;;;;;;;;;;5211897;22;20034;-81
2024/01/21 05:28:22;;;;;;;3.45;1.38;;;;;;;;;;5212760;22;20397;-81
2024/01/21 05:30:34;;;;;;;3.60;1.15;;;;;;;;;;5211381;22;20016;-81
2024/01/21 05:32:46;;;;;;;4.20;1.13;;;;;;;;;;5208741;22;20023;-81
2024/01/21 05:34:55;;;;;;;3.03;1.30;;;;;;;;;;5212246;22;20123;-80
2024/01/21 05:37:05;;;;;;;2.83;1.33;;;;;;;;;;5210608;22;20035;-81
2024/01/21 05:39:08;;;;;;;3.22;1.50;;;;;;;;;;5210500;22;20019;-81
2024/01/21 05:41:12;;;;;;;4.30;1.30;;;;;;;;;;5211168;22;20071;-80
2024/01/21 05:43:18;;;;;;;2.13;1.30;;;;;;;;;;5212780;22;20016;-81
2024/01/21 05:45:27;;;;;;;2.72;1.15;;;;;;;;;;5212041;22;20019;-80
2024/01/21 05:47:29;;;;;;;2.73;1.27;;;;;;;;;;5185656;23;20016;-80
2024/01/21 05:49:36;;;;;;;2.55;0.90;;;;;;;;;;5210109;22;20744;-80
2024/01/21 05:51:45;;;;;;;2.95;1.02;;;;;;;;;;5211774;22;20016;-80
2024/01/21 05:53:51;;;;;;;2.42;1.20;;;;;;;;;;5213161;22;20016;-80
2024/01/21 05:56:10;;;;;;;3.08;1.25;;;;;;;;;;5213200;22;20027;-80
2024/01/21 05:58:17;;;;;;;;;;;;;;;;;;5212696;22;20016;-80
2024/01/21 06:00:18;;;;;;;3.97;1.67;;;;;;;;;;5211119;22;19969;-80
2024/01/21 06:02:25;;;;;;;3.83;1.60;;;;;;;;;;5210340;22;20023;-80
2024/01/21 06:04:40;;;;;;;2.67;1.30;;;;;;;;;;5212448;22;20047;-80
2024/01/21 06:06:42;;;;;;;3.83;1.70;;;;;;;;;;5217547;22;20019;-80
2024/01/21 06:08:52;;;;;;;3.90;1.40;;;;;;;;;;5213849;22;20022;-81
2024/01/21 06:10:57;;;;;;;2.53;1.10;;;;;;;;;;5212583;22;20019;-80
2024/01/21 06:13:07;;;;;;;3.50;1.45;;;;;;;;;;5213859;22;20012;-81
2024/01/21 06:15:08;;;;;;;5.40;2.03;;;;;;;;;;5211322;22;20003;-81
2024/01/21 06:17:09;;;;;;;2.90;1.70;;;;;;;;;;5212200;22;20040;-80
2024/01/21 06:19:10;;;;;;;5.72;1.83;;;;;;;;;;5187292;22;20008;-81
2024/01/21 06:21:16;;;;;;;3.83;1.50;;;;;;;;;;5212550;22;20020;-80
2024/01/21 06:23:29;;;;;;;4.72;2.03;;;;;;;;;;5213082;22;20019;-81
2024/01/21 06:25:34;;;;;;;4.80;2.22;;;;;;;;;;5209930;22;20016;-81
2024/01/21 06:27:40;;;;;;;2.72;1.27;;;;;;;;;;5209929;22;20016;-81
2024/01/21 06:29:47;;;;;;;4.03;2.03;;;;;;;;;;5209902;22;20020;-80
2024/01/21 06:31:50;;;;;;;4.22;1.77;;;;;;;;;;5211633;22;20068;-81
2024/01/21 06:33:58;;;;;;;3.63;1.67;;;;;;;;;;5184646;23;20015;-81
2024/01/21 06:36:05;;;;;;;4.28;1.52;;;;;;;;;;5209837;22;20016;-81
2024/01/21 06:38:12;;;;;;;4.78;2.00;;;;;;;;;;5210456;22;20031;-81
2024/01/21 06:40:22;;;;;;;6.43;2.95;;;;;;;;;;5211823;22;20020;-81
2024/01/21 06:42:29;;;;;;;4.65;2.08;;;;;;;;;;5184311;23;20031;-81
2024/01/21 06:44:30;;;;;;;4.22;1.85;;;;;;;;;;5209382;22;20015;-80
2024/01/21 06:46:36;;;;;;;6.05;1.80;;;;;;;;;;5211227;22;20026;-81
2024/01/21 06:48:37;;;;;;;4.65;2.30;;;;;;;;;;5212025;22;20027;-81
2024/01/21 06:50:48;;;;;;;6.32;2.10;;;;;;;;;;5210734;22;20015;-80
2024/01/21 06:52:57;;;;;;;4.75;2.03;;;;;;;;;;5212536;22;20020;-80
2024/01/21 06:55:05;;;;;;;5.07;1.85;;;;;;;;;;5216605;22;20011;-80
2024/01/21 06:57:13;;;;;;;6.50;2.40;;;;;;;;;;5212083;22;20023;-81
2024/01/21 06:59:20;;;;;;;3.95;2.03;;;;;;;;;;5211746;22;20020;-81
2024/01/21 07:01:24;;;;;;;4.93;2.08;;;;;;;;;;5214440;22;20030;-81
2024/01/21 07:03:32;;;;;;;2.85;1.50;;;;;;;;;;5188094;23;20020;-82
2024/01/21 07:05:41;;;;;;;5.07;2.25;;;;;;;;;;5216501;22;20020;-82
2024/01/21 07:07:52;;;;;;;;;;;;;;;;;;5214538;22;20026;-82
2024/01/21 07:10:01;;;;;;;5.40;2.27;;;;;;;;;;5213459;22;19919;-82
2024/01/21 07:14:18;;;;;;;5.00;1.70;;;;;;;;;;5214156;22;19938;-81
2024/01/21 07:16:33;;;;;;;5.45;2.13;;;;;;;;;;5212367;22;20051;-81
2024/01/21 07:18:36;;;;;;;8.52;2.42;;;;;;;;;;5187192;22;20273;-82
2024/01/21 07:20:39;;;;;;;6.78;1.88;;;;;;;;;;5186749;23;20023;-81
2024/01/21 07:22:42;;;;;;;7.38;2.10;;;;;;;;;;5210523;22;20016;-82
2024/01/21 07:24:43;;;;;;;6.93;2.83;;;;;;;;;;5211805;22;20022;-82
2024/01/21 07:26:48;;;;;;;8.25;2.60;;;;;;;;;;5209868;22;20027;-82
2024/01/21 07:28:49;;;;;;;5.95;1.92;;;;;;;;;;5211615;22;20019;-81
2024/01/21 07:30:54;;;;;;;5.95;2.40;;;;;;;;;;5210013;22;20043;-82
2024/01/21 07:32:58;;;;;;;5.07;2.30;;;;;;;;;;5184451;23;20049;-82
2024/01/21 07:35:00;;;;;;;5.82;2.92;;;;;;;;;;5210034;22;20012;-82
2024/01/21 07:37:12;;;;;;;3.95;2.22;;;;;;;;;;5208759;22;20071;-82
2024/01/21 07:39:23;;;;;;;5.47;2.30;;;;;;;;;;5184115;23;20098;-80
2024/01/21 07:41:25;;;;;;;6.00;2.97;;;;;;;;;;5209411;22;20044;-82
2024/01/21 07:43:32;;;;;;;6.97;2.50;;;;;;;;;;5209486;22;20027;-82
2024/01/21 07:45:42;;;;;;;5.97;2.50;;;;;;;;;;5209114;22;20015;-82
2024/01/21 07:47:46;;;;;;;5.72;2.90;;;;;;;;;;5210310;22;20020;-82
2024/01/21 07:49:59;;;;;;;6.15;2.67;;;;;;;;;;5210479;22;20030;-82
2024/01/21 07:52:03;;;;;;;4.90;2.28;;;;;;;;;;5209038;22;20023;-82
2024/01/21 07:54:06;;;;;;;4.35;2.15;;;;;;;;;;5209452;22;20019;-82
2024/01/21 07:56:08;;;;;;;5.55;2.67;;;;;;;;;;5184190;23;20071;-82
2024/01/21 07:58:21;;;;;;;6.13;2.75;;;;;;;;;;5209289;22;20023;-82
2024/01/21 08:00:26;;;;;;;6.55;1.98;;;;;;;;;;5210536;22;20083;-79
2024/01/21 08:02:31;;;;;;;5.90;2.60;;;;;;;;;;5208037;22;20043;-79
2024/01/21 08:04:34;;;;;;;5.43;2.25;;;;;;;;;;5210526;22;20026;-79
2024/01/21 08:06:41;;;;;;;6.07;2.72;;;;;;;;;;5210204;22;20046;-78
2024/01/21 08:08:44;;;;;;;8.25;2.63;;;;;;;;;;5210284;22;20061;-81
2024/01/21 08:10:47;;;;;;;10.07;3.00;;;;;;;;;;5210584;22;20012;-82
2024/01/21 08:12:49;;;;;;;5.45;2.72;;;;;;;;;;5211188;22;20016;-82
2024/01/21 08:14:51;;;;;;;6.55;2.33;;;;;;;;;;5209924;22;20079;-82
2024/01/21 08:17:11;;;;;;;6.78;3.00;;;;;;;;;;5208178;22;20075;-82
2024/01/21 08:19:20;;;;;;;4.20;2.28;;;;;;;;;;5203328;22;20016;-80
2024/01/21 08:23:49;;;;;;;6.65;2.90;;;;;;;;;;5236732;22;19915;-82
2024/01/21 08:25:57;;;;;;;6.20;2.40;;;;;;;;;;5210463;22;20035;-82
2024/01/21 08:28:01;;;;;;;5.40;2.60;;;;;;;;;;5263713;22;20010;-82
2024/01/21 08:30:05;;;;;;;9.88;2.55;;;;;;;;;;5211161;22;20022;-82
2024/01/21 08:32:07;;;;;;;6.10;2.90;;;;;;;;;;5263465;22;20023;-82
2024/01/21 08:34:09;;;;;;;6.35;2.95;;;;;;;;;;5263190;22;20042;-82
2024/01/21 08:36:12;;;;;;;6.15;2.58;;;;;;;;;;5235782;22;20046;-82
2024/01/21 08:38:16;;;;;;;5.35;2.50;;;;;;;;;;5236908;22;20050;-82
2024/01/21 08:40:19;;;;;;;7.13;3.20;;;;;;;;;;5209063;22;20027;-82
2024/01/21 08:42:24;;;;;;;7.43;2.72;;;;;;;;;;5210895;22;20016;-81
2024/01/21 08:44:31;;;;;;;8.88;3.25;;;;;;;;;;5262685;22;20023;-81
2024/01/21 08:46:38;;;;;;;9.30;2.97;;;;;;;;;;5233406;22;20022;-79
2024/01/21 08:48:47;;;;;;;6.68;2.85;;;;;;;;;;5262576;22;20023;-81
2024/01/21 08:50:57;;;;;;;5.88;2.97;;;;;;;;;;5235787;22;20086;-80
2024/01/21 08:53:26;;;;;;;6.35;2.80;;;;;;;;;;5264872;22;20022;-80
2024/01/21 08:55:28;;;;;;;7.13;3.10;;;;;;;;;;5263628;22;20072;-80
2024/01/21 08:57:35;;;;;;;7.10;2.80;;;;;;;;;;5210686;22;20020;-80
2024/01/21 08:59:46;;;;;;;6.63;2.92;;;;;;;;;;5239038;22;20026;-80
2024/01/21 09:02:05;;;;;;;6.78;2.90;;;;;;;;;;5212467;22;20039;-80
2024/01/21 09:04:11;;;;;;;6.25;3.10;;;;;;;;;;5237338;22;20383;-80
2024/01/21 09:06:13;;;;;;;6.28;2.80;;;;;;;;;;5264651;22;20042;-80
2024/01/21 09:08:21;;;;;;;5.70;2.53;;;;;;;;;;5210770;22;20027;-80
2024/01/21 09:10:24;;;;;;;7.78;2.70;;;;;;;;;;5236687;22;20347;-80
2024/01/21 09:12:32;;;;;;;6.57;2.65;;;;;;;;;;5237134;22;20433;-80
2024/01/21 09:14:34;;;;;;;8.60;3.55;;;;;;;;;;5211400;22;20473;-80
2024/01/21 09:16:38;;;;;;;6.65;2.90;;;;;;;;;;5235891;22;20090;-80
2024/01/21 09:18:42;;;;;;;7.50;3.05;;;;;;;;;;5200667;22;20016;-80
2024/01/21 09:20:49;;;;;;;7.80;2.80;;;;;;;;;;5185330;23;20048;-80
2024/01/21 09:22:56;;;;;;;6.22;3.50;;;;;;;;;;5211909;22;20012;-80
2024/01/21 09:24:59;;;;;;;6.38;3.08;;;;;;;;;;5210865;22;20024;-80
2024/01/21 09:27:03;;;;;;;7.82;3.45;;;;;;;;;;5210419;22;20015;-80
2024/01/21 09:29:05;;;;;;;6.45;3.08;;;;;;;;;;5210106;22;20004;-80
2024/01/21 09:31:12;;;;;;;8.05;3.10;;;;;;;;;;5209747;22;20088;-80
2024/01/21 09:33:19;;;;;;;5.72;2.95;;;;;;;;;;5211489;22;20027;-80
2024/01/21 09:35:23;;;;;;;5.28;2.42;;;;;;;;;;5210795;22;20016;-80
2024/01/21 09:37:25;;;;;;;5.35;2.90;;;;;;;;;;5210044;22;20037;-80
2024/01/21 09:39:28;;;;;;;7.20;3.03;;;;;;;;;;5182982;23;20027;-80
2024/01/21 09:41:49;;;;;;;5.75;2.47;;;;;;;;;;5183463;23;20046;-80
2024/01/21 09:43:52;;;;;;;7.50;2.90;;;;;;;;;;5183031;23;20038;-80
2024/01/21 09:45:54;;;;;;;8.48;3.75;;;;;;;;;;5207917;22;20043;-80
2024/01/21 09:47:59;;;;;;;6.65;2.83;;;;;;;;;;5208896;22;20025;-80
2024/01/21 09:50:01;;;;;;;6.32;2.83;;;;;;;;;;5207988;22;20114;-80
2024/01/21 09:52:08;;;;;;;7.32;3.13;;;;;;;;;;5181569;23;20047;-80
2024/01/21 09:54:10;;;;;;;5.22;2.60;;;;;;;;;;5206961;22;20024;-80
2024/01/21 09:56:21;;;;;;;5.93;2.50;;;;;;;;;;5207816;22;20372;-77
2024/01/21 09:58:31;;;;;;;7.00;3.17;;;;;;;;;;5208513;22;20022;-77
2024/01/21 10:00:34;;;;;;;5.43;2.80;;;;;;;;;;5208209;22;20011;-80
2024/01/21 10:02:36;;;;;;;10.93;3.67;;;;;;;;;;5206621;22;20563;-80
2024/01/21 10:04:42;;;;;;;9.02;3.35;;;;;;;;;;5206714;22;20464;-80
2024/01/21 10:06:45;;;;;;;5.43;2.97;;;;;;;;;;5207059;22;20016;-78
2024/01/21 10:08:47;;;;;;;7.88;3.13;;;;;;;;;;5205924;22;20024;-77
2024/01/21 10:10:50;;;;;;;6.25;3.00;;;;;;;;;;5207491;22;20023;-78
2024/01/21 10:12:55;;;;;;;7.00;2.92;;;1.80;97.00;;;;;;5204906;22;20439;-77
2024/01/21 10:14:56;;;;;;;8.15;4.22;;;3.00;99.90;;;;;;5205175;22;20021;-77
2024/01/21 10:16:59;;;;;;;5.95;3.10;;;4.20;99.90;;;;;;5203212;22;20019;-77
2024/01/21 10:19:00;;;;;;;4.65;2.22;;;3.00;99.90;;;;;;5232989;22;20094;-76
2024/01/21 10:21:06;;;;;;;9.32;4.45;;;5.30;99.90;;;;;;5254949;22;20384;-77
2024/01/21 10:23:11;;;;;;;6.72;3.50;;;3.10;99.90;;;;;;5230514;22;20049;-77
2024/01/21 10:25:15;;;;;;;8.77;3.80;;;;;;;;;;5258618;22;20014;-78
2024/01/21 10:27:19;;;;;;;7.45;3.38;;;;;;;;;;5205275;22;20020;-78
2024/01/21 10:29:21;;;;;;;9.30;3.30;;;;;;;;;;5231320;22;20119;-78
2024/01/21 10:31:23;;;;;;;9.77;4.05;;;;;;;;;;5231060;22;20023;-78
2024/01/21 10:33:26;;;;;;;6.45;3.47;;;;;;;;;;5228003;22;20019;-79
2024/01/21 10:35:28;;;;;;;7.13;3.63;;;;;;;;;;5227454;22;20023;-78
2024/01/21 10:37:31;;;;;;;7.68;3.60;;;;;;;;;;5227367;22;20473;-78
2024/01/21 10:39:35;;;;;;;7.75;4.20;;;;;;;;;;5228454;22;20040;-77
2024/01/21 10:41:40;;;;;;;9.57;3.75;;;;;;;;;;5255451;22;20019;-78
2024/01/21 10:43:43;;;;;;;9.88;3.97;;;;;;;;;;5254116;22;20014;-80
2024/01/21 10:45:47;;;;;;;9.65;3.22;;;;;;;;;;5226845;22;20019;-77
2024/01/21 10:47:50;;;;;;;8.38;4.22;;;;;;;;;;5227437;22;20360;-78
2024/01/21 10:49:59;;;;;;;8.13;3.88;;;;;;;;;;5253915;22;20011;-79
2024/01/21 10:52:00;;;;;;;7.82;3.30;;;;;;;;;;5201063;22;20022;-80
2024/01/21 10:54:03;;;;;;;7.35;3.78;;;;;;;;;;5227556;22;20015;-80
2024/01/21 10:56:07;;;;;;;7.72;3.55;;;;;;;;;;5255778;22;20046;-80
2024/01/21 10:58:09;;;;;;;5.20;2.53;;;;;;;;;;5254602;22;20022;-80
2024/01/21 11:00:11;;;;;;;12.65;4.45;;;;;;;;;;5201322;22;20020;-80
2024/01/21 11:02:12;;;;;;;8.73;3.58;;;;;;;;;;5227941;22;20026;-79
2024/01/21 11:04:17;;;;;;;9.65;3.58;;;;;;;;;;5201566;22;20066;-79
2024/01/21 11:06:19;;;;;;;6.15;2.85;;;;;;;;;;5254346;22;20086;-79
2024/01/21 11:08:23;;;;;;;6.75;3.72;;;;;;;;;;5254160;22;20141;-82
2024/01/21 11:10:25;;;;;;;10.60;4.55;;;;;;;;;;5253917;22;20333;-81
2024/01/21 11:12:29;;;;;;;8.13;3.72;;;;;;;;;;5201566;22;20028;-80
2024/01/21 11:14:33;;;;;;;8.00;3.80;;;;;;;;;;5253872;22;20063;-80
2024/01/21 11:16:35;;;;;;;8.00;4.13;;;;;;;;;;5253959;22;20017;-80
2024/01/21 11:18:36;;;;;;;9.00;4.03;;;;;;;;;;5252570;22;20089;-80
2024/01/21 11:20:39;;;;;;;9.45;5.07;;;;;;;;;;5199660;22;20089;-80
2024/01/21 11:22:40;;;;;;;7.70;3.88;;;;;;;;;;5200538;22;20016;-80
2024/01/21 11:24:43;;;;;;;9.90;4.18;;;;;;;;;;5225998;22;20015;-80
2024/01/21 11:26:47;;;;;;;8.35;3.63;;;;;;;;;;5200184;22;20059;-81
2024/01/21 11:28:48;;;;;;;8.05;3.65;;;;;;;;;;5253089;22;20063;-81
2024/01/21 11:30:53;;;;;;;8.30;3.58;;;;;;;;;;5225465;22;20022;-80
2024/01/21 11:32:59;;;;;;;7.43;3.67;;;;;;;;;;5226034;22;20026;-80
2024/01/21 11:35:08;;;;;;;8.00;3.92;;;;;;;;;;5253808;22;20018;-80
2024/01/21 11:37:13;;;;;;;7.95;3.72;;;;;;;;;;5226675;22;20042;-80
2024/01/21 11:39:18;;;;;;;9.13;3.83;;;;;;;;;;5254256;22;20014;-80
2024/01/21 11:41:23;;;;;;;11.35;3.92;;;;;;;;;;5254581;22;20371;-80
2024/01/21 11:43:25;;;;;;;7.53;3.40;;;;;;;;;;5226646;22;20070;-80
2024/01/21 11:45:27;;;;;;;11.88;4.22;;;;;;;;;;5225901;22;20110;-81
2024/01/21 11:47:28;;;;;;;7.75;3.17;;;;;;;;;;5252936;22;20014;-82
2024/01/21 11:49:31;;;;;;;7.45;3.33;;;;;;;;;;5253422;22;20311;-80
2024/01/21 11:51:32;;;;;;;11.32;4.40;;;;;;;;;;5225989;22;20019;-80
2024/01/21 11:53:33;;;;;;;7.60;3.65;;;;;;;;;;5200038;22;20016;-80
2024/01/21 11:55:40;;;;;;;11.25;3.63;;;;;;;;;;5226317;22;20090;-80
2024/01/21 11:57:43;;;;;;;9.82;4.28;;;;;;;;;;5253932;22;20528;-80
2024/01/21 11:59:46;;;;;;;10.55;4.35;;;;;;;;;;5254757;22;20019;-80
2024/01/21 12:01:49;;;;;;;12.00;5.65;;;;;;;;;;5228359;22;20478;-80
2024/01/21 12:03:50;;;;;;;8.55;3.75;;;;;;;;;;5254678;22;20065;-80
2024/01/21 12:05:55;;;;;;;8.45;3.65;;;;;;;;;;5254914;22;20068;-80
2024/01/21 12:08:07;;;;;;;12.30;4.63;;;;;;;;;;5255158;22;20015;-80
2024/01/21 12:10:09;;;;;;;7.25;3.50;;;;;;;;;;5256281;22;20025;-79
2024/01/21 12:12:13;;;;;;;10.23;4.35;;;;;;;;;;5255400;22;20030;-80
2024/01/21 12:14:16;;;;;;;10.43;4.40;;;;;;;;;;5226611;22;20015;-80
2024/01/21 12:16:18;;;;;;;10.52;3.92;;;;;;;;;;5199440;22;20090;-80
2024/01/21 12:18:19;;;;;;;8.85;3.30;;;;;;;;;;5199083;22;20386;-77
2024/01/21 12:20:21;;;;;;;9.15;3.90;;;;;;;;;;5224461;22;20019;-80
2024/01/21 12:22:39;;;;;;;9.13;4.07;;;;;;;;;;5251868;22;20072;-80
2024/01/21 12:24:44;;;;;;;8.82;4.20;;;;;;;;;;5226220;22;20023;-80
2024/01/21 12:26:47;;;;;;;7.90;4.65;;;;;;;;;;5200332;22;20027;-80
2024/01/21 12:28:55;;;;;;;7.90;4.18;;;;;;;;;;5253156;22;20085;-80
2024/01/21 12:30:56;;;;;;;9.90;4.80;;;;;;;;;;5254133;22;20021;-81
2024/01/21 12:32:59;;;;;;;11.43;4.28;;;;;;;;;;5254092;22;20489;-80
2024/01/21 12:35:01;;;;;;;9.70;4.53;;;;;;;;;;5227409;22;20023;-80
2024/01/21 12:37:02;;;;;;;11.00;4.65;;;;;;;;;;5201617;22;20024;-80
2024/01/21 12:39:07;;;;;;;8.95;4.38;;;;;;;;;;5227448;22;20023;-80
2024/01/21 12:41:09;;;;;;;7.88;4.03;;;;;;;;;;5255039;22;20014;-80
2024/01/21 12:43:11;;;;;;;13.23;4.63;;;;;;;;;;5256758;22;20015;-80